createdAt,value
2022-09-20T00:02:12.936Z,11.82
2022-09-20T00:04:40.575Z,11.83
2022-09-20T00:07:06.903Z,11.85
2022-09-20T00:09:33.174Z,11.84
2022-09-20T00:11:59.434Z,11.83
2022-09-20T00:14:25.716Z,11.82
2022-09-20T00:16:52.058Z,11.83
2022-09-20T00:19:19.888Z,11.84
2022-09-20T00:21:47.601Z,11.83
2022-09-20T00:24:14.095Z,11.82
2022-09-20T00:26:40.373Z,11.83
2022-09-20T00:29:06.961Z,11.83
2022-09-20T00:31:33.356Z,11.82
2022-09-20T00:33:59.674Z,11.81
2022-09-20T00:36:26.050Z,11.81
2022-09-20T00:38:56.016Z,11.84
2022-09-20T00:41:22.329Z,11.83
2022-09-20T00:43:48.599Z,11.81
2022-09-20T00:46:19.621Z,11.81
2022-09-20T00:48:46.278Z,11.81
2022-09-20T00:51:16.839Z,11.81
2022-09-20T00:53:45.001Z,11.79
2022-09-20T00:56:15.863Z,11.79
2022-09-20T00:58:44.899Z,11.76
2022-09-20T01:01:11.402Z,11.80
2022-09-20T01:03:38.620Z,11.76
2022-09-20T01:06:07.253Z,11.73
2022-09-20T01:08:34.501Z,11.73
2022-09-20T01:11:00.974Z,11.71
2022-09-20T01:13:28.654Z,11.68
2022-09-20T01:15:57.198Z,11.67
2022-09-20T01:18:23.654Z,11.66
2022-09-20T01:20:50.610Z,11.66
2022-09-20T01:23:31.753Z,11.65
2022-09-20T01:26:16.652Z,11.62
2022-09-20T01:28:46.001Z,11.61
2022-09-20T01:31:15.635Z,11.59
2022-09-20T01:33:45.551Z,11.59
2022-09-20T01:36:13.825Z,11.57
2022-09-20T01:38:44.199Z,11.55
2022-09-20T01:41:12.406Z,11.52
2022-09-20T01:43:43.014Z,11.46
2022-09-20T01:46:21.280Z,11.44
2022-09-20T01:48:48.881Z,11.42
2022-09-20T01:51:31.042Z,11.41
2022-09-20T01:54:24.218Z,11.41
2022-09-20T01:57:01.958Z,11.41
2022-09-20T01:59:46.634Z,11.41
2022-09-20T02:02:30.878Z,11.43
2022-09-20T02:05:12.602Z,11.43
2022-09-20T02:07:48.483Z,11.45
2022-09-20T02:10:24.290Z,11.45
2022-09-20T02:12:52.898Z,11.45
2022-09-20T02:15:29.983Z,11.44
2022-09-20T02:18:03.451Z,11.46
2022-09-20T02:20:41.114Z,11.47
2022-09-20T02:23:12.849Z,11.46
2022-09-20T02:25:51.738Z,11.47
2022-09-20T02:28:23.622Z,11.46
2022-09-20T02:30:55.417Z,11.48
2022-09-20T02:33:40.282Z,11.47
2022-09-20T02:36:15.976Z,11.48
2022-09-20T02:38:49.823Z,11.49
2022-09-20T02:41:25.207Z,11.49
2022-09-20T02:43:56.233Z,11.47
2022-09-20T02:46:24.142Z,11.47
2022-09-20T02:48:56.054Z,11.50
2022-09-20T02:51:28.374Z,11.44
2022-09-20T02:54:01.741Z,11.43
2022-09-20T02:56:33.150Z,11.44
2022-09-20T02:59:02.194Z,11.45
2022-09-20T03:01:38.447Z,11.42
2022-09-20T03:04:13.791Z,11.42
2022-09-20T03:06:43.566Z,11.42
2022-09-20T03:09:13.866Z,11.42
2022-09-20T03:11:43.755Z,11.41
2022-09-20T03:14:12.093Z,11.42
2022-09-20T03:16:48.742Z,11.42
2022-09-20T03:19:23.865Z,11.41
2022-09-20T03:21:57.814Z,11.41
2022-09-20T03:24:28.761Z,11.43
2022-09-20T03:26:57.118Z,11.41
2022-09-20T03:29:33.645Z,11.40
2022-09-20T03:32:06.742Z,11.39
2022-09-20T03:34:39.323Z,11.37
2022-09-20T03:37:15.394Z,11.37
2022-09-20T03:40:03.121Z,11.37
2022-09-20T03:42:29.773Z,11.37
2022-09-20T03:45:04.298Z,11.39
2022-09-20T03:47:40.443Z,11.38
2022-09-20T03:50:19.297Z,11.45
2022-09-20T03:53:06.417Z,11.54
2022-09-20T03:55:44.238Z,11.57
2022-09-20T03:58:21.494Z,11.57
2022-09-20T04:00:55.787Z,11.62
2022-09-20T04:03:35.829Z,11.52
2022-09-20T04:06:09.758Z,11.48
2022-09-20T04:08:49.000Z,11.54
2022-09-20T04:11:20.223Z,11.47
2022-09-20T04:13:50.536Z,11.48
2022-09-20T04:16:25.757Z,11.47
2022-09-20T04:18:55.150Z,11.49
2022-09-20T04:21:24.693Z,11.44
2022-09-20T04:23:56.290Z,11.41
2022-09-20T04:26:26.141Z,11.41
2022-09-20T04:28:54.991Z,11.41
2022-09-20T04:31:29.201Z,11.42
2022-09-20T04:33:57.054Z,11.42
2022-09-20T04:36:34.130Z,11.42
2022-09-20T04:39:10.486Z,11.45
2022-09-20T04:41:49.016Z,11.41
2022-09-20T04:44:33.316Z,11.42
2022-09-20T04:47:17.514Z,11.42
2022-09-20T04:50:09.161Z,11.42
2022-09-20T04:52:50.324Z,11.43
2022-09-20T04:55:28.987Z,11.45
2022-09-20T04:58:06.480Z,11.46
2022-09-20T05:00:41.482Z,11.44
2022-09-20T05:03:20.797Z,11.45
2022-09-20T05:06:14.927Z,11.43
2022-09-20T05:09:11.319Z,11.43
2022-09-20T05:11:52.582Z,11.42
2022-09-20T05:17:06.585Z,11.40
2022-09-20T05:19:40.923Z,11.41
2022-09-20T05:22:23.746Z,11.43
2022-09-20T05:25:02.863Z,11.40
2022-09-20T05:27:36.449Z,11.41
2022-09-20T05:30:05.622Z,11.39
2022-09-20T05:32:36.770Z,11.45
2022-09-20T05:35:05.819Z,11.44
2022-09-20T05:37:39.521Z,11.42
2022-09-20T05:40:13.545Z,11.44
2022-09-20T05:42:42.035Z,11.43
2022-09-20T05:45:19.843Z,11.43
2022-09-20T05:47:50.237Z,11.47
2022-09-20T05:50:25.593Z,11.47
2022-09-20T05:52:54.314Z,11.48
2022-09-20T05:55:28.190Z,11.45
2022-09-20T05:58:03.312Z,11.45
2022-09-20T06:00:34.077Z,11.48
2022-09-20T06:03:06.674Z,11.49
2022-09-20T06:05:40.323Z,11.50
2022-09-20T06:08:18.562Z,11.52
2022-09-20T06:10:49.982Z,11.55
2022-09-20T06:13:23.737Z,11.55
2022-09-20T06:15:54.569Z,11.57
2022-09-20T06:18:23.569Z,11.57
2022-09-20T06:20:54.819Z,11.57
2022-09-20T06:23:21.807Z,11.56
2022-09-20T06:25:49.837Z,11.56
2022-09-20T06:28:17.428Z,11.55
2022-09-20T06:30:46.161Z,11.58
2022-09-20T06:33:15.411Z,11.62
2022-09-20T06:35:43.773Z,11.69
2022-09-20T06:38:23.305Z,11.77
2022-09-20T06:40:50.576Z,11.84
2022-09-20T06:43:16.847Z,11.90
2022-09-20T06:45:43.148Z,12.11
2022-09-20T06:48:09.456Z,12.18
2022-09-20T06:50:37.046Z,12.20
2022-09-20T06:53:03.325Z,12.20
2022-09-20T06:55:32.415Z,12.40
2022-09-20T06:57:58.745Z,12.69
2022-09-20T07:00:25.108Z,12.61
2022-09-20T07:02:51.398Z,12.69
2022-09-20T07:05:17.886Z,12.52
2022-09-20T07:07:45.482Z,12.53
2022-09-20T07:10:11.905Z,12.53
2022-09-20T07:12:38.261Z,12.56
2022-09-20T07:15:05.022Z,12.84
2022-09-20T07:17:31.276Z,12.94
2022-09-20T07:19:57.547Z,12.82
2022-09-20T07:22:23.815Z,12.93
2022-09-20T07:24:51.470Z,12.85
2022-09-20T07:27:17.742Z,12.86
2022-09-20T07:29:44.191Z,12.76
2022-09-20T07:32:10.463Z,12.92
2022-09-20T07:34:36.742Z,12.96
2022-09-20T07:37:03.111Z,12.97
2022-09-20T07:39:29.662Z,12.91
2022-09-20T07:41:57.255Z,12.92
2022-09-20T07:44:23.586Z,12.92
2022-09-20T07:46:50.191Z,13.14
2022-09-20T07:49:16.485Z,13.02
2022-09-20T07:51:42.756Z,13.19
2022-09-20T07:54:09.255Z,13.26
2022-09-20T07:56:35.551Z,13.11
2022-09-20T07:59:03.209Z,13.14
2022-09-20T08:01:29.526Z,13.10
2022-09-20T08:03:55.869Z,13.27
2022-09-20T08:06:22.239Z,13.29
2022-09-20T08:08:48.539Z,13.17
2022-09-20T08:11:16.527Z,13.27
2022-09-20T08:16:32.088Z,13.35
2022-09-20T08:18:59.345Z,13.42
2022-09-20T08:21:26.303Z,13.42
2022-09-20T08:23:52.715Z,13.65
2022-09-20T08:26:20.866Z,13.74
2022-09-20T08:28:47.682Z,13.71
2022-09-20T08:31:15.513Z,13.81
2022-09-20T08:33:43.218Z,13.98
2022-09-20T08:36:11.577Z,13.97
2022-09-20T08:41:26.494Z,14.17
2022-09-20T08:43:55.873Z,14.30
2022-09-20T08:46:23.987Z,14.23
2022-09-20T08:48:51.807Z,14.51
2022-09-20T08:51:22.729Z,14.53
2022-09-20T08:53:50.724Z,14.56
2022-09-20T08:56:17.101Z,14.53
2022-09-20T08:58:43.959Z,14.65
2022-09-20T09:01:13.984Z,14.65
2022-09-20T09:03:40.287Z,14.61
2022-09-20T09:06:16.407Z,14.73
2022-09-20T09:08:45.146Z,14.75
2022-09-20T09:11:13.412Z,14.76
2022-09-20T09:13:44.263Z,14.76
2022-09-20T09:16:12.310Z,14.91
2022-09-20T09:18:39.860Z,14.88
2022-09-20T09:21:07.289Z,14.96
2022-09-20T09:23:39.515Z,15.06
2022-09-20T09:26:05.780Z,15.23
2022-09-20T09:28:32.049Z,15.39
2022-09-20T09:31:11.889Z,15.47
2022-09-20T09:33:42.695Z,15.62
2022-09-20T09:36:13.554Z,15.76
2022-09-20T09:38:42.013Z,15.78
2022-09-20T09:41:20.150Z,15.82
2022-09-20T09:43:57.046Z,15.88
2022-09-20T09:46:23.947Z,15.82
2022-09-20T09:49:04.253Z,15.88
2022-09-20T09:51:30.716Z,15.99
2022-09-20T09:53:58.543Z,16.01
2022-09-20T09:56:29.467Z,15.93
2022-09-20T09:59:02.970Z,15.79
2022-09-20T10:01:33.661Z,15.87
2022-09-20T10:04:05.368Z,15.81
2022-09-20T10:06:34.362Z,15.75
2022-09-20T10:09:05.011Z,15.68
2022-09-20T10:11:35.404Z,15.55
2022-09-20T10:14:07.495Z,15.73
2022-09-20T10:16:52.532Z,15.86
2022-09-20T10:19:22.796Z,15.61
2022-09-20T10:21:52.271Z,15.52
2022-09-20T10:24:27.585Z,15.55
2022-09-20T10:27:05.557Z,15.42
2022-09-20T10:29:39.849Z,15.44
2022-09-20T10:32:15.624Z,15.30
2022-09-20T10:34:57.422Z,15.22
2022-09-20T10:37:28.574Z,15.22
2022-09-20T10:40:01.451Z,15.12
2022-09-20T10:42:34.111Z,14.98
2022-09-20T10:45:08.426Z,14.91
2022-09-20T10:47:38.660Z,14.98
2022-09-20T10:50:14.679Z,14.92
2022-09-20T10:52:50.965Z,14.85
2022-09-20T10:55:26.745Z,14.79
2022-09-20T10:58:08.409Z,14.64
2022-09-20T11:00:38.475Z,14.59
2022-09-20T11:03:11.518Z,14.67
2022-09-20T11:05:43.312Z,14.49
2022-09-20T11:08:11.253Z,14.44
2022-09-20T11:10:44.207Z,14.42
2022-09-20T11:13:15.583Z,14.38
2022-09-20T11:15:44.250Z,14.41
2022-09-20T11:18:12.794Z,14.65
2022-09-20T11:20:42.964Z,14.64
2022-09-20T11:23:20.434Z,14.67
2022-09-20T11:25:49.809Z,14.77
2022-09-20T11:28:19.537Z,14.98
2022-09-20T11:30:50.466Z,14.92
2022-09-20T11:33:21.457Z,14.83
2022-09-20T11:35:49.269Z,14.91
2022-09-20T11:38:18.640Z,15.01
2022-09-20T11:40:47.995Z,15.21
2022-09-20T11:43:16.258Z,15.33
2022-09-20T11:45:44.445Z,15.36
2022-09-20T11:48:17.314Z,15.19
2022-09-20T11:51:02.358Z,15.12
2022-09-20T11:53:39.109Z,15.14
2022-09-20T11:56:07.669Z,15.23
2022-09-20T11:58:43.614Z,15.23
2022-09-20T12:01:12.339Z,15.28
2022-09-20T12:03:39.648Z,15.15
2022-09-20T12:06:07.786Z,15.24
2022-09-20T12:08:36.053Z,15.14
2022-09-20T12:11:03.706Z,15.15
2022-09-20T12:13:30.915Z,15.34
2022-09-20T12:16:00.882Z,15.34
2022-09-20T12:18:35.961Z,15.27
2022-09-20T12:21:04.754Z,15.48
2022-09-20T12:23:47.650Z,15.43
2022-09-20T12:26:28.823Z,15.46
2022-09-20T12:28:56.185Z,15.46
2022-09-20T12:31:39.087Z,15.39
2022-09-20T12:34:28.867Z,15.36
2022-09-20T12:37:10.035Z,15.29
2022-09-20T12:39:37.425Z,15.23
2022-09-20T12:42:06.247Z,15.24
2022-09-20T12:44:35.392Z,15.30
2022-09-20T12:47:05.260Z,15.58
2022-09-20T12:49:37.027Z,15.57
2022-09-20T12:52:03.367Z,15.60
2022-09-20T12:54:29.639Z,15.62
2022-09-20T12:56:55.922Z,15.60
2022-09-20T12:59:24.027Z,15.61
2022-09-20T13:01:50.401Z,15.70
2022-09-20T13:04:34.506Z,15.93
2022-09-20T13:07:18.431Z,15.87
2022-09-20T13:09:47.585Z,16.03
2022-09-20T13:12:14.346Z,16.12
2022-09-20T13:14:40.675Z,16.03
2022-09-20T13:17:13.911Z,16.11
2022-09-20T13:19:42.632Z,16.17
2022-09-20T13:22:12.028Z,16.06
2022-09-20T13:24:39.637Z,16.21
2022-09-20T13:27:08.605Z,16.14
2022-09-20T13:29:38.634Z,16.13
2022-09-20T13:32:17.432Z,16.02
2022-09-20T13:34:43.714Z,15.96
2022-09-20T13:37:16.519Z,16.02
2022-09-20T13:39:43.556Z,16.12
2022-09-20T13:42:13.804Z,16.11
2022-09-20T13:44:42.322Z,16.01
2022-09-20T13:47:22.222Z,16.03
2022-09-20T13:49:48.486Z,16.02
2022-09-20T13:52:22.031Z,16.09
2022-09-20T13:54:48.315Z,16.15
2022-09-20T13:57:21.237Z,15.97
2022-09-20T13:59:47.691Z,15.95
2022-09-20T14:02:20.319Z,15.89
2022-09-20T14:04:46.830Z,15.84
2022-09-20T14:07:14.381Z,15.79
2022-09-20T14:09:41.011Z,15.84
2022-09-20T14:12:07.679Z,15.80
2022-09-20T14:14:35.515Z,15.87
2022-09-20T14:17:04.481Z,15.97
2022-09-20T14:19:32.062Z,15.83
2022-09-20T14:21:59.303Z,15.64
2022-09-20T14:24:30.005Z,15.75
2022-09-20T14:27:00.530Z,15.69
2022-09-20T14:29:37.260Z,15.78
2022-09-20T14:32:07.597Z,15.89
2022-09-20T14:34:35.608Z,15.91
2022-09-20T14:37:05.079Z,15.79
2022-09-20T14:39:31.385Z,16.02
2022-09-20T14:41:57.670Z,16.11
2022-09-20T14:44:26.682Z,16.00
2022-09-20T14:46:52.946Z,16.08
2022-09-20T14:49:21.655Z,15.95
2022-09-20T14:51:47.943Z,16.05
2022-09-20T14:54:23.506Z,16.14
2022-09-20T14:56:51.221Z,16.30
2022-09-20T14:59:21.616Z,16.13
2022-09-20T15:01:55.234Z,16.30
2022-09-20T15:04:23.719Z,16.54
2022-09-20T15:06:50.278Z,16.72
2022-09-20T15:09:18.065Z,16.80
2022-09-20T15:11:44.358Z,16.78
2022-09-20T15:14:10.646Z,16.86
2022-09-20T15:16:36.971Z,16.76
2022-09-20T15:19:03.293Z,16.99
2022-09-20T15:21:30.902Z,16.88
2022-09-20T15:23:57.203Z,16.73
2022-09-20T15:26:23.486Z,16.65
2022-09-20T15:28:49.772Z,16.49
2022-09-20T15:31:16.062Z,16.53
2022-09-20T15:33:42.404Z,16.55
2022-09-20T15:36:08.674Z,16.63
2022-09-20T15:38:36.278Z,16.68
2022-09-20T15:41:02.938Z,16.65
2022-09-20T15:43:29.241Z,16.69
2022-09-20T15:45:56.725Z,16.66
2022-09-20T15:48:24.062Z,16.68
2022-09-20T15:51:00.525Z,16.49
2022-09-20T15:53:26.792Z,16.46
2022-09-20T15:55:54.399Z,16.51
2022-09-20T15:58:20.671Z,16.46
2022-09-20T16:00:46.952Z,16.56
2022-09-20T16:03:13.253Z,16.58
2022-09-20T16:05:39.514Z,16.62
2022-09-20T16:08:05.806Z,16.63
2022-09-20T16:10:32.059Z,16.50
2022-09-20T16:12:59.653Z,16.34
2022-09-20T16:15:25.935Z,16.38
2022-09-20T16:17:52.195Z,16.42
2022-09-20T16:20:18.484Z,16.23
2022-09-20T16:22:44.757Z,16.14
2022-09-20T16:25:11.045Z,16.17
2022-09-20T16:27:37.318Z,16.06
2022-09-20T16:30:05.582Z,15.91
2022-09-20T16:32:31.862Z,15.96
2022-09-20T16:34:58.127Z,15.92
2022-09-20T16:37:24.428Z,15.94
2022-09-20T16:39:50.697Z,15.83
2022-09-20T16:42:16.953Z,15.80
2022-09-20T16:44:43.234Z,15.74
2022-09-20T16:47:11.881Z,15.60
2022-09-20T16:49:38.333Z,15.58
2022-09-20T16:52:04.636Z,15.56
2022-09-20T16:54:32.135Z,15.61
2022-09-20T16:56:58.510Z,15.46
2022-09-20T16:59:24.767Z,15.36
2022-09-20T17:01:51.307Z,15.34
2022-09-20T17:04:19.275Z,15.23
2022-09-20T17:06:45.743Z,15.22
2022-09-20T17:09:12.819Z,15.12
2022-09-20T17:11:40.610Z,15.03
2022-09-20T17:14:07.515Z,15.02
2022-09-20T17:16:34.844Z,14.92
2022-09-20T17:19:02.162Z,14.77
2022-09-20T17:21:30.320Z,14.63
2022-09-20T17:23:57.730Z,14.52
2022-09-20T17:26:24.926Z,14.44
2022-09-20T17:28:51.833Z,14.37
2022-09-20T17:31:19.295Z,14.33
2022-09-20T17:33:45.648Z,14.25
2022-09-20T17:36:12.639Z,14.15
2022-09-20T17:38:40.253Z,14.10
2022-09-20T17:41:07.867Z,14.08
2022-09-20T17:43:34.248Z,14.03
2022-09-20T17:46:04.780Z,13.98
2022-09-20T17:48:31.075Z,13.93
2022-09-20T17:50:57.477Z,13.90
2022-09-20T17:53:23.780Z,13.84
2022-09-20T17:55:54.825Z,13.79
2022-09-20T17:58:21.121Z,13.74
2022-09-20T18:00:47.419Z,13.68
2022-09-20T18:03:13.749Z,13.62
2022-09-20T18:05:40.097Z,13.54
2022-09-20T18:08:06.426Z,13.46
2022-09-20T18:10:33.421Z,13.37
2022-09-20T18:13:01.109Z,13.28
2022-09-20T18:15:27.375Z,13.19
2022-09-20T18:17:54.564Z,13.08
2022-09-20T18:20:20.956Z,12.96
2022-09-20T18:22:47.765Z,12.88
2022-09-20T18:25:14.290Z,12.84
2022-09-20T18:27:40.587Z,12.80
2022-09-20T18:30:09.153Z,12.75
2022-09-20T18:32:35.423Z,12.69
2022-09-20T18:35:01.749Z,12.61
2022-09-20T18:37:28.029Z,12.55
2022-09-20T18:39:54.301Z,12.46
2022-09-20T18:42:20.559Z,12.39
2022-09-20T18:44:46.831Z,12.30
2022-09-20T18:47:14.455Z,12.23
2022-09-20T18:49:40.727Z,12.21
2022-09-20T18:52:07.000Z,12.20
2022-09-20T18:54:33.258Z,12.13
2022-09-20T18:57:00.082Z,12.07
2022-09-20T18:59:27.013Z,12.02
2022-09-20T19:02:08.424Z,11.95
2022-09-20T19:04:53.249Z,11.90
2022-09-20T19:07:25.066Z,11.85
2022-09-20T19:09:56.381Z,11.80
2022-09-20T19:12:25.619Z,11.77
2022-09-20T19:15:05.470Z,11.73
2022-09-20T19:17:41.754Z,11.63
2022-09-20T19:20:11.502Z,11.54
2022-09-20T19:22:50.032Z,11.43
2022-09-20T19:25:20.424Z,11.32
2022-09-20T19:27:46.986Z,11.23
2022-09-20T19:30:14.103Z,11.22
2022-09-20T19:32:40.712Z,11.24
2022-09-20T19:35:14.489Z,11.24
2022-09-20T19:37:49.307Z,11.21
2022-09-20T19:40:22.205Z,11.19
2022-09-20T19:42:54.814Z,11.13
2022-09-20T19:45:25.551Z,11.09
2022-09-20T19:47:58.674Z,11.01
2022-09-20T19:50:29.188Z,10.97
2022-09-20T19:52:57.230Z,10.95
2022-09-20T19:55:23.897Z,10.98
2022-09-20T19:57:50.464Z,10.95
2022-09-20T20:00:18.260Z,10.90
2022-09-20T20:02:45.330Z,10.91
2022-09-20T20:05:12.523Z,10.94
2022-09-20T20:07:41.925Z,10.98
2022-09-20T20:10:13.298Z,11.01
2022-09-20T20:12:44.451Z,10.98
2022-09-20T20:15:16.927Z,10.92
2022-09-20T20:17:47.855Z,10.87
2022-09-20T20:20:18.122Z,10.85
2022-09-20T20:22:57.995Z,10.83
2022-09-20T20:25:28.591Z,10.80
2022-09-20T20:27:54.867Z,10.77
2022-09-20T20:30:21.151Z,10.71
2022-09-20T20:32:47.432Z,10.67
2022-09-20T20:35:13.759Z,10.64
2022-09-20T20:37:40.022Z,10.64
2022-09-20T20:40:07.007Z,10.62
2022-09-20T20:42:34.635Z,10.63
2022-09-20T20:45:00.902Z,10.63
2022-09-20T20:47:27.189Z,10.63
2022-09-20T20:49:53.450Z,10.62
2022-09-20T20:52:19.708Z,10.55
2022-09-20T20:54:45.962Z,10.46
2022-09-20T20:57:12.238Z,10.41
2022-09-20T20:59:39.848Z,10.40
2022-09-20T21:02:08.092Z,10.39
2022-09-20T21:04:34.494Z,10.34
2022-09-20T21:07:00.768Z,10.32
2022-09-20T21:09:27.028Z,10.29
2022-09-20T21:11:53.310Z,10.22
2022-09-20T21:14:19.567Z,10.19
2022-09-20T21:16:47.174Z,10.12
2022-09-20T21:19:14.221Z,10.08
2022-09-20T21:21:41.086Z,10.03
2022-09-20T21:24:08.199Z,10.00
2022-09-20T21:26:35.199Z,9.98
2022-09-20T21:29:02.306Z,9.99
2022-09-20T21:31:29.647Z,9.94
2022-09-20T21:33:57.381Z,9.93
2022-09-20T21:36:24.653Z,9.93
2022-09-20T21:38:50.956Z,9.93
2022-09-20T21:41:18.048Z,9.95
2022-09-20T21:43:45.265Z,9.91
2022-09-20T21:46:11.965Z,9.93
2022-09-20T21:48:38.399Z,9.92
2022-09-20T21:51:06.622Z,9.98
2022-09-20T21:53:32.983Z,9.98
2022-09-20T21:55:59.874Z,9.96
2022-09-20T21:58:26.335Z,9.97
2022-09-20T22:00:56.126Z,10.00
2022-09-20T22:03:22.419Z,10.06
2022-09-20T22:05:48.687Z,10.06
2022-09-20T22:08:16.280Z,10.07
2022-09-20T22:10:42.530Z,10.04
2022-09-20T22:13:08.806Z,9.99
2022-09-20T22:15:35.114Z,9.98
2022-09-20T22:18:01.418Z,9.95
2022-09-20T22:20:27.677Z,9.96
2022-09-20T22:22:53.959Z,9.96
2022-09-20T22:25:21.580Z,9.96
2022-09-20T22:27:47.864Z,9.96
2022-09-20T22:30:14.230Z,9.95
2022-09-20T22:32:42.712Z,9.92
2022-09-20T22:35:09.137Z,9.91
2022-09-20T22:37:35.385Z,9.88
2022-09-20T22:40:01.827Z,9.85
2022-09-20T22:42:29.502Z,9.83
2022-09-20T22:44:55.779Z,9.80
2022-09-20T22:47:22.040Z,9.78
2022-09-20T22:49:48.350Z,9.77
2022-09-20T22:52:14.623Z,9.74
2022-09-20T22:54:40.901Z,9.74
2022-09-20T22:57:07.180Z,9.73
2022-09-20T22:59:34.775Z,9.73
2022-09-20T23:02:01.039Z,9.73
2022-09-20T23:04:27.331Z,9.75
2022-09-20T23:06:53.719Z,9.74
2022-09-20T23:09:20.562Z,9.73
2022-09-20T23:11:47.305Z,9.74
2022-09-20T23:14:14.747Z,9.72
2022-09-20T23:16:43.013Z,9.72
2022-09-20T23:19:09.778Z,9.71
2022-09-20T23:21:37.102Z,9.64
2022-09-20T23:24:04.409Z,9.57
2022-09-20T23:26:31.634Z,9.57
2022-09-20T23:28:59.053Z,9.55
2022-09-20T23:31:25.842Z,9.57
2022-09-20T23:33:54.439Z,9.58
2022-09-20T23:36:21.534Z,9.61
2022-09-20T23:38:48.361Z,9.62
2022-09-20T23:41:15.546Z,9.60
2022-09-20T23:43:42.278Z,9.60
2022-09-20T23:46:09.019Z,9.56
2022-09-20T23:48:35.321Z,9.56
2022-09-20T23:51:03.473Z,9.59
2022-09-20T23:53:29.735Z,9.52
2022-09-20T23:55:56.046Z,9.49
2022-09-20T23:58:22.382Z,9.50
